NK10 weather

D C Helicopters Heliport
Cohocton, New York, United States

Public forecast

Using degrees Fahrenheit for public forecast. Weather courtesy of forecast.io.

METAR (pilot weather report)

Closest report is Dansville Municipal Airport, 10.3 nm (19.0 km) WNW. Retrieved 2019/07/21 07:54 UTC (16 minutes ago):

KDSV 210754Z AUTO VRB03KT 10SM OVC095 24/20 A2982 RMK AO2 SLP100 T02440200

TAF (pilot weather forecast)

Closest forecast is Elmira Corning Regional Airport, 33.8 nm (62.7 km) SE. Retrieved 2019/07/21 06:22 UTC (2 hours ago):

TAF KELM 210520Z 2106/2206 26004KT P6SM SCT100 FM211100 25006KT P6SM BKN035 TEMPO 2111/2114 BKN025 FM211400 30011KT P6SM BKN035 FM220000 33005KT P6SM SCT130